createdAt,value
2022-10-05T00:00:02.498Z,4.78
2022-10-05T00:00:17.858Z,4.70
2022-10-05T00:00:29.798Z,4.80
2022-10-05T00:00:51.064Z,4.60
2022-10-05T00:01:20.553Z,4.65
2022-10-05T00:01:35.289Z,4.70
2022-10-05T00:01:48.467Z,4.55
2022-10-05T00:02:00.575Z,4.60
2022-10-05T00:02:21.896Z,4.78
2022-10-05T00:02:33.813Z,4.93
2022-10-05T00:02:46.626Z,4.85
2022-10-05T00:02:58.618Z,4.78
2022-10-05T00:03:11.782Z,4.65
2022-10-05T00:03:27.380Z,4.53
2022-10-05T00:03:41.104Z,4.40
2022-10-05T00:03:59.135Z,4.43
2022-10-05T00:04:22.669Z,4.60
2022-10-05T00:04:34.603Z,4.53
2022-10-05T00:04:48.754Z,4.47
2022-10-05T00:05:00.715Z,4.60
2022-10-05T00:05:30.220Z,4.60
2022-10-05T00:05:44.971Z,4.65
2022-10-05T00:05:57.540Z,4.70
2022-10-05T00:06:12.309Z,4.55
2022-10-05T00:06:25.926Z,4.40
2022-10-05T00:06:37.951Z,4.40
2022-10-05T00:07:22.925Z,4.30
2022-10-05T00:07:34.890Z,4.60
2022-10-05T00:07:47.225Z,4.63
2022-10-05T00:08:13.114Z,4.80
2022-10-05T00:08:30.000Z,4.80
2022-10-05T00:08:42.940Z,4.75
2022-10-05T00:08:54.840Z,4.60
2022-10-05T00:09:14.773Z,4.57
2022-10-05T00:09:32.201Z,4.30
2022-10-05T00:09:46.291Z,4.55
2022-10-05T00:09:59.764Z,4.80
2022-10-05T00:10:16.821Z,5.00
2022-10-05T00:10:29.287Z,4.72
2022-10-05T00:10:42.372Z,4.28
2022-10-05T00:10:54.261Z,4.22
2022-10-05T00:11:13.737Z,4.57
2022-10-05T00:11:25.655Z,4.25
2022-10-05T00:11:37.551Z,3.90
2022-10-05T00:11:50.995Z,4.15
2022-10-05T00:12:17.444Z,4.30
2022-10-05T00:12:29.869Z,4.32
2022-10-05T00:12:45.460Z,4.35
2022-10-05T00:12:57.366Z,4.38
2022-10-05T00:13:19.268Z,4.60
2022-10-05T00:13:31.462Z,4.70
2022-10-05T00:13:47.066Z,4.60
2022-10-05T00:13:59.330Z,4.70
2022-10-05T00:14:28.837Z,4.55
2022-10-05T00:14:41.128Z,4.40
2022-10-05T00:14:57.717Z,4.30
2022-10-05T00:15:13.249Z,4.40
2022-10-05T00:15:25.142Z,4.55
2022-10-05T00:15:37.076Z,4.50
2022-10-05T00:15:52.346Z,4.55
2022-10-05T00:16:08.300Z,4.50
2022-10-05T00:16:21.237Z,4.30
2022-10-05T00:16:34.798Z,4.13
2022-10-05T00:16:47.237Z,4.30
2022-10-05T00:17:01.429Z,4.72
2022-10-05T00:17:18.107Z,4.70
2022-10-05T00:17:30.517Z,4.40
2022-10-05T00:17:43.060Z,4.47
2022-10-05T00:17:55.663Z,4.40
2022-10-05T00:18:19.801Z,4.60
2022-10-05T00:18:32.494Z,4.87
2022-10-05T00:18:48.643Z,5.00
2022-10-05T00:19:00.598Z,4.85
2022-10-05T00:19:20.745Z,4.55
2022-10-05T00:19:36.360Z,4.38
2022-10-05T00:19:52.172Z,4.45
2022-10-05T00:20:25.305Z,4.35
2022-10-05T00:20:37.243Z,4.40
2022-10-05T00:20:49.440Z,4.20
2022-10-05T00:21:01.759Z,4.22
2022-10-05T00:21:22.362Z,4.38
2022-10-05T00:21:34.265Z,4.32
2022-10-05T00:21:46.173Z,4.28
2022-10-05T00:22:10.916Z,4.55
2022-10-05T00:22:29.699Z,4.03
2022-10-05T00:22:41.712Z,3.85
2022-10-05T00:23:00.627Z,3.72
2022-10-05T00:23:18.899Z,3.60
2022-10-05T00:23:31.903Z,4.10
2022-10-05T00:23:43.804Z,4.18
2022-10-05T00:23:57.796Z,4.07
2022-10-05T00:24:10.327Z,3.55
2022-10-05T00:24:24.862Z,3.65
2022-10-05T00:24:38.057Z,3.70
2022-10-05T00:24:54.979Z,3.85
2022-10-05T00:25:14.604Z,4.07
2022-10-05T00:25:27.020Z,4.15
2022-10-05T00:25:38.951Z,4.13
2022-10-05T00:25:51.111Z,4.10
2022-10-05T00:26:18.618Z,4.00
2022-10-05T00:26:33.305Z,4.05
2022-10-05T00:26:45.556Z,4.28
2022-10-05T00:27:01.441Z,4.32
2022-10-05T00:27:22.015Z,4.28
2022-10-05T00:27:37.440Z,4.10
2022-10-05T00:28:00.454Z,3.92
2022-10-05T00:28:26.734Z,4.05
2022-10-05T00:28:40.982Z,3.97
2022-10-05T00:28:54.416Z,3.78
2022-10-05T00:29:20.665Z,3.80
2022-10-05T00:29:34.294Z,3.90
2022-10-05T00:29:48.824Z,3.90
2022-10-05T00:30:11.123Z,3.67
2022-10-05T00:30:24.613Z,3.63
2022-10-05T00:30:36.530Z,3.80
2022-10-05T00:30:48.521Z,3.70
2022-10-05T00:31:00.881Z,3.53
2022-10-05T00:31:31.259Z,3.50
2022-10-05T00:31:43.286Z,3.50
2022-10-05T00:31:55.282Z,3.40
2022-10-05T00:32:10.040Z,3.40
2022-10-05T00:32:22.103Z,3.40
2022-10-05T00:32:33.998Z,3.40
2022-10-05T00:32:46.279Z,3.67
2022-10-05T00:32:59.880Z,3.78
2022-10-05T00:33:11.998Z,3.70
2022-10-05T00:33:24.018Z,3.78
2022-10-05T00:33:35.893Z,3.90
2022-10-05T00:33:48.986Z,3.72
2022-10-05T00:34:00.986Z,3.47
2022-10-05T00:34:12.932Z,3.60
2022-10-05T00:34:25.110Z,3.67
2022-10-05T00:34:37.299Z,3.70
2022-10-05T00:34:49.290Z,3.60
2022-10-05T00:35:02.474Z,3.85
2022-10-05T00:35:16.730Z,3.80
2022-10-05T00:35:30.686Z,3.78
2022-10-05T00:35:45.504Z,3.85
2022-10-05T00:35:57.429Z,3.67
2022-10-05T00:36:09.416Z,3.60
2022-10-05T00:36:21.445Z,3.63
2022-10-05T00:36:33.454Z,3.78
2022-10-05T00:36:45.851Z,4.00
2022-10-05T00:36:58.396Z,4.03
2022-10-05T00:37:10.452Z,3.83
2022-10-05T00:37:22.337Z,3.80
2022-10-05T00:37:34.577Z,4.00
2022-10-05T00:37:50.804Z,4.00
2022-10-05T00:38:02.775Z,4.00
2022-10-05T00:38:14.678Z,4.10
2022-10-05T00:38:28.541Z,4.00
2022-10-05T00:38:41.265Z,4.13
2022-10-05T00:38:53.719Z,3.97
2022-10-05T00:39:05.668Z,3.70
2022-10-05T00:39:18.558Z,3.72
2022-10-05T00:39:30.819Z,4.00
2022-10-05T00:39:42.849Z,4.38
2022-10-05T00:39:55.032Z,4.40
2022-10-05T00:40:27.841Z,4.25
2022-10-05T00:41:16.480Z,4.07
2022-10-05T00:41:47.167Z,4.10
2022-10-05T00:41:59.049Z,3.85
2022-10-05T00:42:13.932Z,3.78
2022-10-05T00:42:32.548Z,3.90
2022-10-05T00:42:59.268Z,4.00
2022-10-05T00:43:25.932Z,4.20
2022-10-05T00:44:01.926Z,4.22
2022-10-05T00:44:58.325Z,3.80
2022-10-05T00:45:18.330Z,4.30
2022-10-05T00:46:08.653Z,4.10
2022-10-05T00:46:40.073Z,3.70
2022-10-05T00:46:54.773Z,3.80
2022-10-05T00:47:13.352Z,3.80
2022-10-05T00:48:00.210Z,4.05
2022-10-05T00:48:14.738Z,3.83
2022-10-05T00:48:48.203Z,3.83
2022-10-05T00:49:02.639Z,3.90
2022-10-05T00:49:14.483Z,3.65
2022-10-05T00:49:47.850Z,3.40
2022-10-05T00:50:26.918Z,3.60
2022-10-05T00:51:13.627Z,3.88
2022-10-05T00:51:28.933Z,3.80
2022-10-05T00:51:48.185Z,3.92
2022-10-05T00:52:13.208Z,3.85
2022-10-05T00:52:40.052Z,3.78
2022-10-05T00:53:35.593Z,3.53
2022-10-05T00:54:01.808Z,3.33
2022-10-05T00:54:25.728Z,3.72
2022-10-05T00:54:46.160Z,3.85
2022-10-05T00:55:22.659Z,3.60
2022-10-05T00:56:18.159Z,3.75
2022-10-05T00:56:38.833Z,3.70
2022-10-05T00:56:59.304Z,3.53
2022-10-05T00:57:17.289Z,3.40
2022-10-05T00:57:32.136Z,3.50
2022-10-05T00:57:58.525Z,3.70
2022-10-05T00:58:34.613Z,3.50
2022-10-05T00:59:18.343Z,3.85
2022-10-05T00:59:45.138Z,3.55
2022-10-05T01:00:12.946Z,3.40
2022-10-05T01:00:26.827Z,3.47
2022-10-05T01:01:11.443Z,3.72
2022-10-05T01:01:35.783Z,3.70
2022-10-05T01:02:07.924Z,3.75
2022-10-05T01:02:34.363Z,4.07
2022-10-05T01:03:34.288Z,4.15
2022-10-05T01:03:52.115Z,4.00
2022-10-05T01:04:27.021Z,3.85
2022-10-05T01:05:00.092Z,3.78
2022-10-05T01:05:32.990Z,3.47
2022-10-05T01:05:47.822Z,3.80
2022-10-05T01:06:36.398Z,3.80
2022-10-05T01:07:03.196Z,3.60
2022-10-05T01:07:43.260Z,3.55
2022-10-05T01:08:00.718Z,3.70
2022-10-05T01:08:47.265Z,3.75
2022-10-05T01:09:22.486Z,3.65
2022-10-05T01:10:03.286Z,3.83
2022-10-05T01:10:37.882Z,3.78
2022-10-05T01:11:23.501Z,4.03
2022-10-05T01:11:58.001Z,4.32
2022-10-05T01:12:23.044Z,4.05
2022-10-05T01:12:55.526Z,4.30
2022-10-05T01:13:25.874Z,4.43
2022-10-05T01:13:37.699Z,4.60
2022-10-05T01:14:03.597Z,4.55
2022-10-05T01:14:21.390Z,4.60
2022-10-05T01:15:01.257Z,4.57
2022-10-05T01:15:21.883Z,4.60
2022-10-05T01:15:55.594Z,4.40
2022-10-05T01:16:11.427Z,4.75
2022-10-05T01:16:53.904Z,4.78
2022-10-05T01:17:13.783Z,4.70
2022-10-05T01:17:36.935Z,4.60
2022-10-05T01:18:22.017Z,4.70
2022-10-05T01:19:14.136Z,4.40
2022-10-05T01:19:39.829Z,4.30
2022-10-05T01:20:11.447Z,4.78
2022-10-05T01:20:49.451Z,4.55
2022-10-05T01:21:34.610Z,4.22
2022-10-05T01:21:54.092Z,4.10
2022-10-05T01:22:26.165Z,4.10
2022-10-05T01:23:07.640Z,4.30
2022-10-05T01:23:34.545Z,4.53
2022-10-05T01:24:57.652Z,4.38
2022-10-05T01:25:48.479Z,4.35
2022-10-05T01:26:34.326Z,4.32
2022-10-05T01:27:05.851Z,4.60
2022-10-05T01:27:17.736Z,4.28
2022-10-05T01:27:44.216Z,4.20
2022-10-05T01:28:17.161Z,4.18
2022-10-05T01:28:43.327Z,4.03
2022-10-05T01:29:11.492Z,4.40
2022-10-05T01:29:42.399Z,4.30
2022-10-05T01:30:04.268Z,4.20
2022-10-05T01:30:20.127Z,4.28
2022-10-05T01:30:39.660Z,4.67
2022-10-05T01:30:57.262Z,4.20
2022-10-05T01:31:24.090Z,4.05
2022-10-05T01:31:51.848Z,4.03
2022-10-05T01:32:08.861Z,4.03
2022-10-05T01:32:23.797Z,4.13
2022-10-05T01:32:48.624Z,4.00
2022-10-05T01:33:19.019Z,3.90
2022-10-05T01:33:50.734Z,4.20
2022-10-05T01:34:10.586Z,3.67
2022-10-05T01:34:44.296Z,4.00
2022-10-05T01:35:33.739Z,4.25
2022-10-05T01:36:02.433Z,4.00
2022-10-05T01:36:31.398Z,4.50
2022-10-05T01:37:04.748Z,3.90
2022-10-05T01:37:38.115Z,3.80
2022-10-05T01:38:08.038Z,4.00
2022-10-05T01:38:44.524Z,3.85
2022-10-05T01:39:04.045Z,4.00
2022-10-05T01:39:52.064Z,3.72
2022-10-05T01:40:27.443Z,4.00
2022-10-05T01:40:53.468Z,4.10
2022-10-05T01:41:23.059Z,4.00
2022-10-05T01:42:00.168Z,3.78
2022-10-05T01:42:33.188Z,4.30
2022-10-05T01:42:45.096Z,3.63
2022-10-05T01:43:18.448Z,3.80
2022-10-05T01:43:45.931Z,4.35
2022-10-05T01:44:09.878Z,4.38
2022-10-05T01:44:31.528Z,4.40
2022-10-05T01:45:19.527Z,4.43
2022-10-05T01:45:46.212Z,4.07
2022-10-05T01:46:14.268Z,4.00
2022-10-05T01:47:11.486Z,4.10
2022-10-05T01:47:29.167Z,3.92
2022-10-05T01:48:25.604Z,3.83
2022-10-05T01:49:18.530Z,4.07
2022-10-05T01:49:33.014Z,4.03
2022-10-05T01:49:52.434Z,4.00
2022-10-05T01:50:11.225Z,4.03
2022-10-05T01:50:23.200Z,3.90
2022-10-05T01:50:50.268Z,4.10
2022-10-05T01:51:02.115Z,3.85
2022-10-05T01:51:27.933Z,4.05
2022-10-05T01:52:18.520Z,4.28
2022-10-05T01:52:45.392Z,4.13
2022-10-05T01:53:24.752Z,3.95
2022-10-05T01:54:07.397Z,4.28
2022-10-05T01:54:24.951Z,4.07
2022-10-05T01:55:00.943Z,4.38
2022-10-05T01:55:22.736Z,3.95
2022-10-05T01:56:14.452Z,3.70
2022-10-05T01:56:48.274Z,5.55
2022-10-05T01:57:18.197Z,4.80
2022-10-05T01:58:06.360Z,4.43
2022-10-05T01:58:36.336Z,4.93
2022-10-05T01:59:19.051Z,5.90
2022-10-05T01:59:36.572Z,4.68
2022-10-05T02:00:07.548Z,4.93
2022-10-05T02:00:19.953Z,5.13
2022-10-05T02:00:53.971Z,5.10
2022-10-05T02:01:25.495Z,4.80
2022-10-05T02:01:49.552Z,5.20
2022-10-05T02:02:06.146Z,5.07
2022-10-05T02:02:22.000Z,4.88
2022-10-05T02:02:39.293Z,4.88
2022-10-05T02:03:04.767Z,4.82
2022-10-05T02:03:26.614Z,4.70
2022-10-05T02:03:45.203Z,4.60
2022-10-05T02:04:05.867Z,4.57
2022-10-05T02:05:02.390Z,4.55
2022-10-05T02:05:37.797Z,4.22
2022-10-05T02:05:56.593Z,4.85
2022-10-05T02:06:21.335Z,4.68
2022-10-05T02:06:40.460Z,4.38
2022-10-05T02:06:53.831Z,4.15
2022-10-05T02:07:13.804Z,4.35
2022-10-05T02:07:54.088Z,4.55
2022-10-05T02:08:14.044Z,4.07
2022-10-05T02:08:38.476Z,4.40
2022-10-05T02:09:05.654Z,4.43
2022-10-05T02:09:22.078Z,4.60
2022-10-05T02:09:40.716Z,4.50
2022-10-05T02:10:00.176Z,4.35
2022-10-05T02:10:22.621Z,4.15
2022-10-05T02:10:39.349Z,4.00
2022-10-05T02:11:12.950Z,4.13
2022-10-05T02:11:24.955Z,4.50
2022-10-05T02:11:41.995Z,4.57
2022-10-05T02:12:28.119Z,4.88
2022-10-05T02:13:54.658Z,4.45
2022-10-05T02:14:22.444Z,4.55
2022-10-05T02:14:40.732Z,4.63
2022-10-05T02:14:57.624Z,4.38
2022-10-05T02:15:18.343Z,4.53
2022-10-05T02:15:39.004Z,4.75
2022-10-05T02:16:00.422Z,4.63
2022-10-05T02:16:38.746Z,4.10
2022-10-05T02:16:54.013Z,3.83
2022-10-05T02:17:14.096Z,3.92
2022-10-05T02:17:45.378Z,3.80
2022-10-05T02:18:05.371Z,3.90
2022-10-05T02:18:21.661Z,3.92
2022-10-05T02:18:56.492Z,4.07
2022-10-05T02:19:16.903Z,4.00
2022-10-05T02:19:40.846Z,4.22
2022-10-05T02:20:02.249Z,4.32
2022-10-05T02:20:22.425Z,4.13
2022-10-05T02:20:37.496Z,4.03
2022-10-05T02:20:52.258Z,4.07
2022-10-05T02:21:04.592Z,3.88
2022-10-05T02:21:18.593Z,3.88
2022-10-05T02:21:34.041Z,4.20
2022-10-05T02:21:54.268Z,4.60
2022-10-05T02:22:15.647Z,4.15
2022-10-05T02:22:46.916Z,4.10
2022-10-05T02:23:04.615Z,4.20
2022-10-05T02:23:24.000Z,4.05
2022-10-05T02:23:39.709Z,4.00
2022-10-05T02:23:56.646Z,4.00
2022-10-05T02:24:13.117Z,3.90
2022-10-05T02:24:32.345Z,4.00
2022-10-05T02:25:06.451Z,4.00
2022-10-05T02:25:26.406Z,4.00
2022-10-05T02:25:42.673Z,4.20
2022-10-05T02:25:56.363Z,4.10
2022-10-05T02:26:11.449Z,3.88
2022-10-05T02:26:25.672Z,3.83
2022-10-05T02:26:39.237Z,3.88
2022-10-05T02:26:53.948Z,4.05
2022-10-05T02:27:09.175Z,3.97
2022-10-05T02:27:33.061Z,4.03
2022-10-05T02:28:04.185Z,4.10
2022-10-05T02:28:23.555Z,4.28
2022-10-05T02:28:51.224Z,4.20
2022-10-05T02:29:08.128Z,4.10
2022-10-05T02:29:23.977Z,3.92
2022-10-05T02:29:39.736Z,4.15
2022-10-05T02:29:55.040Z,4.22
2022-10-05T02:30:12.791Z,4.10
2022-10-05T02:30:30.347Z,4.47
2022-10-05T02:30:50.259Z,4.47
2022-10-05T02:31:10.937Z,4.38
2022-10-05T02:31:29.110Z,4.10
2022-10-05T02:31:49.580Z,4.28
2022-10-05T02:32:10.135Z,4.55
2022-10-05T02:32:26.490Z,4.43
2022-10-05T02:32:49.687Z,4.15
2022-10-05T02:33:06.719Z,4.25
2022-10-05T02:33:29.937Z,4.60
2022-10-05T02:33:41.988Z,4.63
2022-10-05T02:34:25.097Z,4.90
2022-10-05T02:34:43.659Z,4.72
2022-10-05T02:35:02.193Z,4.68
2022-10-05T02:35:17.193Z,4.82
2022-10-05T02:35:29.101Z,5.13
2022-10-05T02:35:41.326Z,5.10
2022-10-05T02:35:53.381Z,4.88
2022-10-05T02:36:13.753Z,4.88
2022-10-05T02:36:36.302Z,4.70
2022-10-05T02:36:55.756Z,4.55
2022-10-05T02:37:26.126Z,4.68
2022-10-05T02:37:58.625Z,4.95
2022-10-05T02:38:17.483Z,4.85
2022-10-05T02:38:59.372Z,4.70
2022-10-05T02:39:26.244Z,4.65
2022-10-05T02:40:04.816Z,4.80
2022-10-05T02:40:57.227Z,4.50
2022-10-05T02:41:24.465Z,4.75
2022-10-05T02:41:45.240Z,4.90
2022-10-05T02:42:02.640Z,5.03
2022-10-05T02:42:28.569Z,4.70
2022-10-05T02:43:25.169Z,4.83
2022-10-05T02:43:42.728Z,4.45
2022-10-05T02:44:31.945Z,4.65
2022-10-05T02:45:00.624Z,4.30
2022-10-05T02:45:44.488Z,4.60
2022-10-05T02:46:18.483Z,4.75
2022-10-05T02:47:07.741Z,4.43
2022-10-05T02:47:33.491Z,4.20
2022-10-05T02:48:03.622Z,4.13
2022-10-05T02:48:34.673Z,3.97
2022-10-05T02:49:18.003Z,4.18
2022-10-05T02:49:42.998Z,4.38
2022-10-05T02:50:24.307Z,4.70
2022-10-05T02:50:58.135Z,4.40
2022-10-05T02:51:18.836Z,4.40
2022-10-05T02:51:37.292Z,4.50
2022-10-05T02:52:06.526Z,4.30
2022-10-05T02:52:27.439Z,4.80
2022-10-05T02:52:54.381Z,4.70
2022-10-05T02:53:15.813Z,4.43
2022-10-05T02:53:34.693Z,4.28
2022-10-05T02:53:49.449Z,4.10
2022-10-05T02:54:53.369Z,4.30
2022-10-05T02:55:32.583Z,4.28
2022-10-05T02:55:55.020Z,4.32
2022-10-05T02:56:29.857Z,3.72
2022-10-05T02:56:56.668Z,4.22
2022-10-05T02:57:38.879Z,5.28
2022-10-05T02:58:04.214Z,5.38
2022-10-05T02:58:22.328Z,5.47
2022-10-05T02:58:59.518Z,5.32
2022-10-05T02:59:27.376Z,5.65
2022-10-05T02:59:57.964Z,4.78
2022-10-05T03:00:15.192Z,4.65
2022-10-05T03:00:34.093Z,4.50
2022-10-05T03:00:50.599Z,4.70
2022-10-05T03:01:05.473Z,4.93
2022-10-05T03:01:27.785Z,5.05
2022-10-05T03:02:04.401Z,5.10
2022-10-05T03:02:26.638Z,4.65
2022-10-05T03:02:48.758Z,4.97
2022-10-05T03:03:14.054Z,4.80
2022-10-05T03:03:36.393Z,4.50
2022-10-05T03:04:00.202Z,4.55
2022-10-05T03:04:42.694Z,4.40
2022-10-05T03:05:27.908Z,4.90
2022-10-05T03:05:53.388Z,4.70
2022-10-05T03:06:17.296Z,4.72
2022-10-05T03:06:37.470Z,4.50
2022-10-05T03:07:16.864Z,4.70
2022-10-05T03:07:50.320Z,4.82
2022-10-05T03:08:08.529Z,4.85
2022-10-05T03:08:41.761Z,4.90
2022-10-05T03:09:02.882Z,4.60
2022-10-05T03:09:17.591Z,4.60
2022-10-05T03:09:35.385Z,4.72
2022-10-05T03:10:11.809Z,4.50
2022-10-05T03:10:45.458Z,4.10
2022-10-05T03:11:11.420Z,4.55
2022-10-05T03:11:37.540Z,4.43
2022-10-05T03:12:13.317Z,4.35
2022-10-05T03:12:33.954Z,4.93
2022-10-05T03:13:09.975Z,4.63
2022-10-05T03:13:24.391Z,4.90
2022-10-05T03:13:59.731Z,4.70
2022-10-05T03:14:22.267Z,4.43
2022-10-05T03:14:58.118Z,4.47
2022-10-05T03:15:30.903Z,4.45
2022-10-05T03:15:55.881Z,4.60
2022-10-05T03:16:34.107Z,4.68
2022-10-05T03:17:02.342Z,4.30
2022-10-05T03:17:25.313Z,4.60
2022-10-05T03:18:03.489Z,4.45
2022-10-05T03:18:29.877Z,4.45
2022-10-05T03:18:59.032Z,4.38
2022-10-05T03:19:40.334Z,4.45
2022-10-05T03:20:22.709Z,4.22
2022-10-05T03:20:53.609Z,4.47
2022-10-05T03:21:23.667Z,4.85
2022-10-05T03:22:07.557Z,4.18
2022-10-05T03:22:33.238Z,4.20
2022-10-05T03:22:51.076Z,4.10
2022-10-05T03:23:09.610Z,4.28
2022-10-05T03:23:30.270Z,4.38
2022-10-05T03:23:47.757Z,4.38
2022-10-05T03:24:41.268Z,4.38
2022-10-05T03:25:01.863Z,4.05
2022-10-05T03:25:28.666Z,4.20
2022-10-05T03:25:49.118Z,4.47
2022-10-05T03:26:07.125Z,4.90
2022-10-05T03:26:27.989Z,4.72
2022-10-05T03:26:42.765Z,4.38
2022-10-05T03:27:07.075Z,4.50
2022-10-05T03:28:02.344Z,4.78
2022-10-05T03:28:30.780Z,4.70
2022-10-05T03:28:51.390Z,4.32
2022-10-05T03:29:14.018Z,4.50
2022-10-05T03:29:28.545Z,4.60
2022-10-05T03:29:47.813Z,4.47
2022-10-05T03:30:13.143Z,4.43
2022-10-05T03:30:30.166Z,4.60
2022-10-05T03:30:47.894Z,4.10
2022-10-05T03:30:59.817Z,4.13
2022-10-05T03:31:36.993Z,4.43
2022-10-05T03:31:58.758Z,4.15
2022-10-05T03:32:30.391Z,4.47
2022-10-05T03:33:21.336Z,4.60
2022-10-05T03:33:46.831Z,4.30
2022-10-05T03:34:15.237Z,4.40
2022-10-05T03:34:41.005Z,4.22
2022-10-05T03:35:23.090Z,4.43
2022-10-05T03:35:49.049Z,5.43
2022-10-05T03:36:21.720Z,5.03
2022-10-05T03:36:58.171Z,5.18
2022-10-05T03:37:49.208Z,4.72
2022-10-05T03:38:12.818Z,4.80
2022-10-05T03:38:41.334Z,5.18
2022-10-05T03:39:08.224Z,4.90
2022-10-05T03:39:25.695Z,4.78
2022-10-05T03:40:03.476Z,4.75
2022-10-05T03:40:33.754Z,5.13
2022-10-05T03:41:03.663Z,5.15
2022-10-05T03:41:27.461Z,5.70
2022-10-05T03:41:52.820Z,5.22
2022-10-05T03:42:23.437Z,5.55
2022-10-05T03:42:46.092Z,4.78
2022-10-05T03:43:22.874Z,4.70
2022-10-05T03:43:46.727Z,5.55
2022-10-05T03:44:16.561Z,5.30
2022-10-05T03:44:37.408Z,5.22
2022-10-05T03:45:17.122Z,4.88
2022-10-05T03:45:58.126Z,5.07
2022-10-05T03:46:50.524Z,5.15
2022-10-05T03:47:10.941Z,5.22
2022-10-05T03:47:39.191Z,5.25
2022-10-05T03:48:08.581Z,4.97
2022-10-05T03:48:51.404Z,5.28
2022-10-05T03:49:18.370Z,5.32
2022-10-05T03:50:09.311Z,5.22
2022-10-05T03:50:34.058Z,5.05
2022-10-05T03:51:01.184Z,5.43
2022-10-05T03:51:22.163Z,5.10
2022-10-05T03:51:40.350Z,5.10
2022-10-05T03:52:01.893Z,5.43
2022-10-05T03:52:18.624Z,5.15
2022-10-05T03:52:42.346Z,5.43
2022-10-05T03:53:03.057Z,6.00
2022-10-05T03:53:26.039Z,6.25
2022-10-05T03:53:44.593Z,5.75
2022-10-05T03:54:23.026Z,5.18
2022-10-05T03:54:48.466Z,5.40
2022-10-05T03:55:09.388Z,5.18
2022-10-05T03:55:31.043Z,5.82
2022-10-05T03:55:59.565Z,5.40
2022-10-05T03:56:33.826Z,5.45
2022-10-05T03:56:52.705Z,5.60
2022-10-05T03:57:21.722Z,5.28
2022-10-05T03:57:38.736Z,5.05
2022-10-05T03:57:54.461Z,5.32
2022-10-05T03:58:17.125Z,5.55
2022-10-05T03:58:38.519Z,5.50
2022-10-05T03:58:58.300Z,5.20
2022-10-05T03:59:18.232Z,5.10
2022-10-05T03:59:40.392Z,5.13
2022-10-05T04:00:01.133Z,5.00
2022-10-05T04:00:19.505Z,5.40
2022-10-05T04:00:33.602Z,5.20
2022-10-05T04:00:51.713Z,4.93
2022-10-05T04:01:10.237Z,4.90
2022-10-05T04:01:30.556Z,5.13
2022-10-05T04:01:51.871Z,5.03
2022-10-05T04:02:34.194Z,4.82
2022-10-05T04:02:57.862Z,4.97
2022-10-05T04:03:20.283Z,4.88
2022-10-05T04:03:39.542Z,4.80
2022-10-05T04:03:59.229Z,4.60
2022-10-05T04:04:18.755Z,4.75
2022-10-05T04:04:41.103Z,5.00
2022-10-05T04:04:58.539Z,5.03
2022-10-05T04:05:10.411Z,5.18
2022-10-05T04:05:29.756Z,5.10
2022-10-05T04:05:59.790Z,4.85
2022-10-05T04:06:26.286Z,5.40
2022-10-05T04:06:45.456Z,5.57
2022-10-05T04:06:57.944Z,5.50
2022-10-05T04:07:25.738Z,5.55
2022-10-05T04:07:46.808Z,5.65
2022-10-05T04:08:01.637Z,6.35
2022-10-05T04:08:25.011Z,6.90
2022-10-05T04:08:49.570Z,6.25
2022-10-05T04:09:04.024Z,5.93
2022-10-05T04:09:25.023Z,6.65
2022-10-05T04:09:41.943Z,7.35
2022-10-05T04:09:55.838Z,7.60
2022-10-05T04:10:16.010Z,7.32
2022-10-05T04:10:37.518Z,7.20
2022-10-05T04:10:57.021Z,8.50
2022-10-05T04:11:14.487Z,10.23
2022-10-05T04:11:52.478Z,21.17
2022-10-05T04:12:30.331Z,23.63
2022-10-05T04:12:54.527Z,13.20
2022-10-05T04:13:13.620Z,11.93
2022-10-05T04:13:37.234Z,12.48
2022-10-05T04:13:54.370Z,12.98
2022-10-05T04:14:14.957Z,12.80
2022-10-05T04:14:49.862Z,12.30
2022-10-05T04:15:18.901Z,12.43
2022-10-05T04:15:42.164Z,12.88
2022-10-05T04:16:06.528Z,12.20
2022-10-05T04:16:25.248Z,12.57
2022-10-05T04:16:49.641Z,12.52
2022-10-05T04:17:09.599Z,12.35
2022-10-05T04:17:35.443Z,12.77
2022-10-05T04:17:54.851Z,13.63
2022-10-05T04:18:27.336Z,13.65
2022-10-05T04:18:45.642Z,13.13
2022-10-05T04:19:23.425Z,13.60
2022-10-05T04:19:59.841Z,13.60
2022-10-05T04:20:27.316Z,14.00
2022-10-05T04:20:46.929Z,13.60
2022-10-05T04:21:05.462Z,13.43
2022-10-05T04:21:56.067Z,13.30
2022-10-05T04:22:13.375Z,13.98
2022-10-05T04:22:37.121Z,13.85
2022-10-05T04:22:58.597Z,13.93
2022-10-05T04:23:10.440Z,14.05
2022-10-05T04:23:38.197Z,13.63
2022-10-05T04:23:53.035Z,13.95
2022-10-05T04:24:13.335Z,13.68
2022-10-05T04:24:39.558Z,13.77
2022-10-05T04:25:17.580Z,13.68
2022-10-05T04:25:35.011Z,13.70
2022-10-05T04:25:53.944Z,13.57
2022-10-05T04:26:18.554Z,13.55
2022-10-05T04:26:53.341Z,14.10
2022-10-05T04:27:15.076Z,13.70
2022-10-05T04:27:34.431Z,13.68
2022-10-05T04:28:10.120Z,13.77
2022-10-05T04:28:33.149Z,13.35
2022-10-05T04:29:16.214Z,13.95
2022-10-05T04:29:38.913Z,13.88
2022-10-05T04:30:00.409Z,13.65
2022-10-05T04:30:16.629Z,13.35
2022-10-05T04:30:30.406Z,13.45
2022-10-05T04:30:45.861Z,13.15
2022-10-05T04:31:00.153Z,13.00
2022-10-05T04:31:19.700Z,12.70
2022-10-05T04:31:56.384Z,12.48
2022-10-05T04:32:35.472Z,11.93
2022-10-05T04:32:53.326Z,12.70
2022-10-05T04:33:09.546Z,11.02
2022-10-05T04:33:22.135Z,10.30
2022-10-05T04:33:34.138Z,10.02
2022-10-05T04:33:53.137Z,9.15
2022-10-05T04:34:32.453Z,9.30
2022-10-05T04:35:02.914Z,9.32
2022-10-05T04:35:30.080Z,9.32
2022-10-05T04:36:06.295Z,9.50
2022-10-05T04:36:34.528Z,8.98
2022-10-05T04:36:57.080Z,8.70
2022-10-05T04:37:34.471Z,9.10
2022-10-05T04:38:04.192Z,8.88
2022-10-05T04:38:27.925Z,8.15
2022-10-05T04:39:02.658Z,7.90
2022-10-05T04:39:14.499Z,7.75
2022-10-05T04:39:49.719Z,7.53
2022-10-05T04:40:32.553Z,7.07
2022-10-05T04:41:21.601Z,6.47
2022-10-05T04:41:39.226Z,7.30
2022-10-05T04:42:15.732Z,7.15
2022-10-05T04:42:40.158Z,6.45
2022-10-05T04:43:13.005Z,6.25
2022-10-05T04:43:48.245Z,6.72
2022-10-05T04:44:24.068Z,6.78
2022-10-05T04:44:48.144Z,6.72
2022-10-05T04:45:12.027Z,7.07
2022-10-05T04:45:43.319Z,7.40
2022-10-05T04:46:14.482Z,7.43
2022-10-05T04:46:44.755Z,7.47
2022-10-05T04:47:15.766Z,7.20
2022-10-05T04:47:33.400Z,6.90
2022-10-05T04:48:06.581Z,7.05
2022-10-05T04:48:18.491Z,7.63
2022-10-05T04:48:30.331Z,7.53
2022-10-05T04:49:06.138Z,7.20
2022-10-05T04:49:36.268Z,7.65
2022-10-05T04:50:24.965Z,7.07
2022-10-05T04:50:53.037Z,7.20
2022-10-05T04:51:16.590Z,7.00
2022-10-05T04:51:31.042Z,7.15
2022-10-05T04:52:01.393Z,6.78
2022-10-05T04:52:28.146Z,7.20
2022-10-05T04:53:20.528Z,7.00
2022-10-05T04:53:56.712Z,6.25
2022-10-05T04:54:21.565Z,6.57
2022-10-05T04:54:57.712Z,7.32
2022-10-05T04:55:18.253Z,6.72
2022-10-05T04:56:07.485Z,6.85
2022-10-05T04:56:28.196Z,7.13
2022-10-05T04:56:44.779Z,7.10
2022-10-05T04:57:03.709Z,6.90
2022-10-05T04:57:38.347Z,6.75
2022-10-05T04:58:09.489Z,6.15
2022-10-05T04:58:21.441Z,5.82
2022-10-05T04:59:10.885Z,5.80
2022-10-05T04:59:41.114Z,6.07
2022-10-05T05:00:01.692Z,6.45
2022-10-05T05:00:25.323Z,6.35
2022-10-05T05:01:10.494Z,5.68
2022-10-05T05:01:36.055Z,6.18
2022-10-05T05:01:50.560Z,6.20
2022-10-05T05:02:36.158Z,6.40
2022-10-05T05:03:25.433Z,5.70
2022-10-05T05:03:48.744Z,6.00
2022-10-05T05:04:19.484Z,6.35
2022-10-05T05:04:54.541Z,5.78
2022-10-05T05:05:09.005Z,6.00
2022-10-05T05:05:28.549Z,6.00
2022-10-05T05:06:17.263Z,6.25
2022-10-05T05:06:46.716Z,6.20
2022-10-05T05:07:06.002Z,6.03
2022-10-05T05:07:44.656Z,6.15
2022-10-05T05:08:05.945Z,6.20
2022-10-05T05:08:35.181Z,6.10
2022-10-05T05:09:13.551Z,6.45
2022-10-05T05:09:44.207Z,6.20
2022-10-05T05:10:01.871Z,6.50
2022-10-05T05:11:17.397Z,6.80
2022-10-05T05:11:48.443Z,6.65
2022-10-05T05:12:12.292Z,6.57
2022-10-05T05:12:32.766Z,6.85
2022-10-05T05:12:57.701Z,7.20
2022-10-05T05:13:45.060Z,6.95
2022-10-05T05:14:32.151Z,6.88
2022-10-05T05:15:02.392Z,6.88
2022-10-05T05:15:40.128Z,6.78
2022-10-05T05:16:09.983Z,6.60
2022-10-05T05:16:41.080Z,7.10
2022-10-05T05:17:29.617Z,6.95
2022-10-05T05:18:06.474Z,6.75
2022-10-05T05:19:03.020Z,7.80
2022-10-05T05:19:17.769Z,7.00
2022-10-05T05:19:43.326Z,7.25
2022-10-05T05:20:11.397Z,7.80
2022-10-05T05:20:44.901Z,7.60
2022-10-05T05:21:16.679Z,7.30
2022-10-05T05:21:48.059Z,7.22
2022-10-05T05:22:11.905Z,7.32
2022-10-05T05:22:37.312Z,7.43
2022-10-05T05:22:49.146Z,7.50
2022-10-05T05:23:18.582Z,7.53
2022-10-05T05:23:44.265Z,7.72
2022-10-05T05:24:09.176Z,7.65
2022-10-05T05:24:36.228Z,7.72
2022-10-05T05:25:17.306Z,7.22
2022-10-05T05:25:56.428Z,7.60
2022-10-05T05:26:22.472Z,7.35
2022-10-05T05:26:39.089Z,7.47
2022-10-05T05:27:10.906Z,7.38
2022-10-05T05:27:43.069Z,7.63
2022-10-05T05:28:00.528Z,7.30
2022-10-05T05:28:21.333Z,7.47
2022-10-05T05:29:05.576Z,7.10
2022-10-05T05:29:27.740Z,7.72
2022-10-05T05:30:02.908Z,7.75
2022-10-05T05:30:22.442Z,7.30
2022-10-05T05:30:39.998Z,7.30
2022-10-05T05:31:12.986Z,7.13
2022-10-05T05:31:30.546Z,7.32